createdAt,value
2017-03-29T00:00:12.683Z,950.3
2017-03-29T00:01:20.906Z,950.3
2017-03-29T00:02:28.812Z,950.3
2017-03-29T00:03:36.899Z,950.3
2017-03-29T00:04:44.990Z,950.2
2017-03-29T00:05:53.201Z,950.3
2017-03-29T00:07:01.202Z,950.3
2017-03-29T00:08:09.287Z,950.3
2017-03-29T00:09:17.344Z,950.2
2017-03-29T00:10:25.439Z,950.3
2017-03-29T00:11:33.736Z,950.3
2017-03-29T00:12:41.758Z,950.3
2017-03-29T00:13:50.214Z,950.3
2017-03-29T00:14:57.796Z,950.3
2017-03-29T00:16:06.059Z,950.3
2017-03-29T00:17:14.028Z,950.3
2017-03-29T00:18:22.065Z,950.3
2017-03-29T00:19:30.149Z,950.4
2017-03-29T00:20:38.237Z,950.4
2017-03-29T00:21:46.326Z,950.4
2017-03-29T00:22:54.486Z,950.4
2017-03-29T00:24:02.498Z,950.4
2017-03-29T00:25:10.588Z,950.4
2017-03-29T00:26:18.686Z,950.3
2017-03-29T00:27:26.768Z,950.4
2017-03-29T00:28:35.359Z,950.4
2017-03-29T00:29:43.068Z,950.4
2017-03-29T00:30:51.030Z,950.4
2017-03-29T00:31:59.119Z,950.4
2017-03-29T00:33:07.226Z,950.4
2017-03-29T00:34:15.365Z,950.4
2017-03-29T00:35:23.380Z,950.4
2017-03-29T00:36:31.473Z,950.4
2017-03-29T00:37:39.563Z,950.4
2017-03-29T00:38:47.801Z,950.4
2017-03-29T00:39:55.793Z,950.4
2017-03-29T00:41:03.829Z,950.4
2017-03-29T00:42:11.917Z,950.4
2017-03-29T00:43:20.006Z,950.4
2017-03-29T00:44:28.091Z,950.4
2017-03-29T00:45:36.692Z,950.4
2017-03-29T00:46:44.269Z,950.4
2017-03-29T00:47:52.355Z,950.4
2017-03-29T00:49:00.447Z,950.4
2017-03-29T00:50:08.539Z,950.4
2017-03-29T00:51:16.679Z,950.4
2017-03-29T00:52:24.709Z,950.4
2017-03-29T00:53:32.800Z,950.4
2017-03-29T00:54:41.068Z,950.4
2017-03-29T00:55:48.977Z,950.5
2017-03-29T00:56:57.122Z,950.5
2017-03-29T00:58:05.155Z,950.5
2017-03-29T00:59:13.238Z,950.5
2017-03-29T01:00:21.353Z,950.5
2017-03-29T01:01:29.925Z,950.5
2017-03-29T01:02:37.563Z,950.5
2017-03-29T01:03:45.593Z,950.5
2017-03-29T01:04:53.851Z,950.5
2017-03-29T01:06:01.776Z,950.5
2017-03-29T01:07:09.865Z,950.5
2017-03-29T01:08:18.006Z,950.5
2017-03-29T01:09:26.041Z,950.5
2017-03-29T01:10:34.168Z,950.5
2017-03-29T01:11:42.249Z,950.5
2017-03-29T01:12:50.304Z,950.5
2017-03-29T01:13:58.450Z,950.5
2017-03-29T01:15:06.556Z,950.5
2017-03-29T01:16:14.724Z,950.5
2017-03-29T01:17:22.721Z,950.5
2017-03-29T01:18:30.759Z,950.5
2017-03-29T01:19:39.346Z,950.5
2017-03-29T01:20:46.927Z,950.5
2017-03-29T01:21:55.013Z,950.5
2017-03-29T01:23:03.099Z,950.5
2017-03-29T01:24:11.195Z,950.5
2017-03-29T01:25:19.345Z,950.5
2017-03-29T01:26:27.541Z,950.4
2017-03-29T01:27:35.461Z,950.4
2017-03-29T01:28:43.558Z,950.4
2017-03-29T01:29:51.658Z,950.5
2017-03-29T01:30:59.801Z,950.4
2017-03-29T01:32:07.831Z,950.4
2017-03-29T01:33:15.980Z,950.4
2017-03-29T01:34:24.012Z,950.4
2017-03-29T01:35:32.098Z,950.4
2017-03-29T01:36:40.868Z,950.4
2017-03-29T01:37:48.456Z,950.3
2017-03-29T01:38:56.362Z,950.3
2017-03-29T01:40:04.449Z,950.3
2017-03-29T01:41:12.543Z,950.4
2017-03-29T01:42:20.689Z,950.4
2017-03-29T01:43:28.720Z,950.3
2017-03-29T01:44:36.812Z,950.4
2017-03-29T01:45:44.907Z,950.4
2017-03-29T01:46:52.988Z,950.4
2017-03-29T01:48:01.228Z,950.4
2017-03-29T01:49:09.672Z,950.4
2017-03-29T01:50:17.257Z,950.4
2017-03-29T01:51:25.347Z,950.4
2017-03-29T01:52:33.432Z,950.4
2017-03-29T01:53:41.577Z,950.4
2017-03-29T01:54:49.608Z,950.4
2017-03-29T01:55:57.696Z,950.4
2017-03-29T01:57:05.788Z,950.4
2017-03-29T01:58:13.877Z,950.4
2017-03-29T01:59:22.020Z,950.4
2017-03-29T02:00:30.051Z,950.4
2017-03-29T02:01:38.141Z,950.4
2017-03-29T02:02:46.227Z,950.5
2017-03-29T02:03:54.475Z,950.5
2017-03-29T02:05:02.531Z,950.5
2017-03-29T02:06:10.494Z,950.5
2017-03-29T02:07:18.582Z,950.5
2017-03-29T02:08:26.671Z,950.5
2017-03-29T02:09:34.758Z,950.4
2017-03-29T02:10:43.348Z,950.5
2017-03-29T02:11:50.934Z,950.5
2017-03-29T02:12:59.022Z,950.5
2017-03-29T02:14:07.177Z,950.5
2017-03-29T02:15:15.266Z,950.5
2017-03-29T02:16:23.339Z,950.5
2017-03-29T02:17:31.370Z,950.5
2017-03-29T02:18:39.455Z,950.5
2017-03-29T02:19:47.547Z,950.5
2017-03-29T02:20:55.692Z,950.5
2017-03-29T02:22:04.229Z,950.6
2017-03-29T02:23:11.818Z,950.5
2017-03-29T02:24:19.902Z,950.6
2017-03-29T02:25:28.109Z,950.6
2017-03-29T02:26:36.080Z,950.6
2017-03-29T02:27:44.225Z,950.6
2017-03-29T02:28:52.257Z,950.7
2017-03-29T02:30:00.344Z,950.7
2017-03-29T02:31:08.432Z,950.7
2017-03-29T02:32:16.520Z,950.7
2017-03-29T02:33:24.665Z,950.7
2017-03-29T02:34:32.693Z,950.7
2017-03-29T02:35:40.852Z,950.7
2017-03-29T02:36:49.426Z,950.7
2017-03-29T02:37:56.957Z,950.7
2017-03-29T02:39:05.102Z,950.7
2017-03-29T02:40:13.137Z,950.7
2017-03-29T02:41:21.224Z,950.7
2017-03-29T02:42:29.307Z,950.7
2017-03-29T02:43:37.401Z,950.7
2017-03-29T02:44:45.543Z,950.7
2017-03-29T02:45:53.575Z,950.6
2017-03-29T02:47:01.695Z,950.6
2017-03-29T02:48:09.749Z,950.7
2017-03-29T02:49:17.830Z,950.6
2017-03-29T02:50:25.976Z,950.7
2017-03-29T02:51:34.204Z,950.7
2017-03-29T02:52:42.605Z,950.6
2017-03-29T02:53:50.191Z,950.7
2017-03-29T02:54:58.280Z,950.7
2017-03-29T02:56:06.430Z,950.7
2017-03-29T02:57:14.465Z,950.7
2017-03-29T02:58:22.553Z,950.7
2017-03-29T02:59:30.645Z,950.7
2017-03-29T03:00:38.738Z,950.7
2017-03-29T03:01:47.409Z,950.7
2017-03-29T03:02:55.083Z,950.7
2017-03-29T03:04:02.999Z,950.7
2017-03-29T03:05:11.088Z,950.7
2017-03-29T03:06:19.176Z,950.7
2017-03-29T03:07:27.323Z,950.7
2017-03-29T03:08:35.473Z,950.7
2017-03-29T03:09:43.435Z,950.7
2017-03-29T03:10:51.530Z,950.7
2017-03-29T03:11:59.621Z,950.7
2017-03-29T03:13:08.332Z,950.8
2017-03-29T03:14:15.794Z,950.8
2017-03-29T03:15:23.883Z,950.8
2017-03-29T03:16:31.974Z,950.8
2017-03-29T03:17:40.054Z,950.7
2017-03-29T03:18:48.219Z,950.8
2017-03-29T03:19:56.231Z,950.8
2017-03-29T03:21:04.319Z,950.8
2017-03-29T03:22:12.401Z,950.8
2017-03-29T03:23:20.495Z,950.8
2017-03-29T03:24:28.702Z,950.8
2017-03-29T03:25:36.665Z,950.8
2017-03-29T03:26:44.756Z,950.8
2017-03-29T03:27:52.847Z,950.8
2017-03-29T03:29:01.100Z,950.8
2017-03-29T03:30:09.526Z,950.8
2017-03-29T03:31:17.109Z,950.8
2017-03-29T03:32:25.198Z,950.8
2017-03-29T03:33:33.286Z,950.8
2017-03-29T03:34:41.387Z,950.8
2017-03-29T03:35:49.526Z,950.8
2017-03-29T03:36:57.556Z,950.8
2017-03-29T03:38:05.644Z,950.8
2017-03-29T03:39:13.861Z,950.8
2017-03-29T03:40:22.013Z,950.8
2017-03-29T03:41:30.417Z,950.8
2017-03-29T03:42:38.005Z,950.8
2017-03-29T03:43:46.094Z,950.8
2017-03-29T03:44:54.175Z,950.8
2017-03-29T03:46:02.260Z,950.8
2017-03-29T03:47:10.404Z,950.8
2017-03-29T03:48:18.433Z,950.8
2017-03-29T03:49:26.522Z,950.9
2017-03-29T03:50:34.743Z,950.8
2017-03-29T03:51:42.701Z,950.8
2017-03-29T03:52:50.841Z,950.9
2017-03-29T03:53:58.872Z,950.8
2017-03-29T03:55:06.960Z,950.8
2017-03-29T03:56:15.553Z,950.9
2017-03-29T03:57:23.131Z,950.9
2017-03-29T03:58:31.276Z,950.8
2017-03-29T03:59:39.317Z,950.8
2017-03-29T04:00:47.426Z,950.9
2017-03-29T04:01:55.499Z,950.9
2017-03-29T04:03:03.576Z,950.9
2017-03-29T04:04:11.721Z,950.9
2017-03-29T04:05:19.748Z,950.9
2017-03-29T04:06:27.839Z,951.0
2017-03-29T04:07:35.928Z,951.0
2017-03-29T04:08:44.017Z,951.0
2017-03-29T04:09:52.163Z,951.0
2017-03-29T04:11:00.194Z,951.0
2017-03-29T04:12:08.848Z,951.0
2017-03-29T04:13:16.380Z,951.0
2017-03-29T04:14:24.478Z,951.0
2017-03-29T04:15:32.624Z,951.0
2017-03-29T04:16:40.824Z,951.0
2017-03-29T04:17:48.739Z,950.9
2017-03-29T04:18:56.846Z,951.0
2017-03-29T04:20:04.911Z,951.0
2017-03-29T04:21:13.054Z,951.0
2017-03-29T04:22:21.088Z,951.0
2017-03-29T04:23:29.245Z,951.0
2017-03-29T04:24:37.259Z,951.0
2017-03-29T04:25:45.348Z,951.0
2017-03-29T04:26:53.940Z,951.0
2017-03-29T04:28:01.733Z,951.0
2017-03-29T04:29:09.606Z,951.0
2017-03-29T04:30:17.696Z,951.0
2017-03-29T04:31:25.780Z,951.1
2017-03-29T04:32:33.922Z,951.1
2017-03-29T04:33:41.955Z,951.1
2017-03-29T04:34:50.040Z,951.1
2017-03-29T04:35:58.130Z,951.1
2017-03-29T04:37:06.219Z,951.1
2017-03-29T04:38:14.364Z,951.1
2017-03-29T04:39:22.394Z,951.1
2017-03-29T04:40:30.491Z,951.1
2017-03-29T04:41:38.586Z,951.1
2017-03-29T04:42:46.869Z,951.1
2017-03-29T04:43:55.440Z,951.1
2017-03-29T04:45:02.840Z,951.2
2017-03-29T04:46:10.934Z,951.1
2017-03-29T04:47:19.021Z,951.2
2017-03-29T04:48:27.096Z,951.2
2017-03-29T04:49:35.692Z,951.2
2017-03-29T04:50:43.274Z,951.2
2017-03-29T04:51:51.358Z,951.2
2017-03-29T04:52:59.441Z,951.1
2017-03-29T04:54:07.683Z,951.2
2017-03-29T04:55:15.676Z,951.2
2017-03-29T04:56:23.707Z,951.2
2017-03-29T04:57:31.794Z,951.2
2017-03-29T04:58:39.888Z,951.2
2017-03-29T04:59:48.024Z,951.2
2017-03-29T05:00:56.110Z,951.2
2017-03-29T05:02:04.526Z,951.2
2017-03-29T05:03:12.618Z,951.3
2017-03-29T05:04:20.330Z,951.2
2017-03-29T05:05:28.637Z,951.3
2017-03-29T05:06:36.598Z,951.2
2017-03-29T05:07:44.890Z,951.3
2017-03-29T05:08:52.665Z,951.2
2017-03-29T05:10:01.404Z,951.3
2017-03-29T05:11:08.850Z,951.3
2017-03-29T05:12:17.430Z,951.3
2017-03-29T05:13:25.014Z,951.3
2017-03-29T05:14:33.108Z,951.3
2017-03-29T05:15:41.428Z,951.3
2017-03-29T05:16:49.282Z,951.3
2017-03-29T05:17:57.427Z,951.3
2017-03-29T05:19:05.454Z,951.3
2017-03-29T05:20:13.538Z,951.3
2017-03-29T05:21:22.186Z,951.3
2017-03-29T05:22:29.739Z,951.3
2017-03-29T05:23:38.306Z,951.4
2017-03-29T05:24:45.893Z,951.4
2017-03-29T05:25:54.144Z,951.4
2017-03-29T05:27:02.217Z,951.4
2017-03-29T05:28:10.158Z,951.4
2017-03-29T05:29:18.297Z,951.4
2017-03-29T05:30:26.331Z,951.3
2017-03-29T05:31:35.125Z,951.4
2017-03-29T05:32:42.593Z,951.4
2017-03-29T05:33:50.638Z,951.4
2017-03-29T05:34:58.733Z,951.4
2017-03-29T05:36:06.758Z,951.4
2017-03-29T05:37:14.996Z,951.4
2017-03-29T05:38:22.928Z,951.4
2017-03-29T05:39:31.021Z,951.4
2017-03-29T05:40:39.617Z,951.4
2017-03-29T05:41:47.196Z,951.4
2017-03-29T05:42:55.283Z,951.4
2017-03-29T05:44:03.369Z,951.4
2017-03-29T05:45:11.757Z,951.4
2017-03-29T05:46:19.729Z,951.4
2017-03-29T05:47:28.183Z,951.4
2017-03-29T05:48:35.844Z,951.4
2017-03-29T05:49:43.816Z,951.4
2017-03-29T05:50:51.893Z,951.4
2017-03-29T05:52:00.489Z,951.4
2017-03-29T05:53:08.117Z,951.4
2017-03-29T05:54:16.159Z,951.4
2017-03-29T05:55:24.241Z,951.4
2017-03-29T05:56:32.641Z,951.4
2017-03-29T05:57:40.473Z,951.4
2017-03-29T05:58:48.503Z,951.5
2017-03-29T05:59:56.584Z,951.5
2017-03-29T06:01:04.673Z,951.5
2017-03-29T06:02:12.757Z,951.4
2017-03-29T06:03:21.349Z,951.5
2017-03-29T06:04:28.974Z,951.5
2017-03-29T06:05:37.026Z,951.5
2017-03-29T06:06:45.108Z,951.6
2017-03-29T06:07:53.194Z,951.6
2017-03-29T06:09:01.338Z,951.6
2017-03-29T06:10:09.467Z,951.6
2017-03-29T06:11:17.449Z,951.6
2017-03-29T06:12:25.539Z,951.6
2017-03-29T06:13:33.624Z,951.6
2017-03-29T06:14:42.215Z,951.6
2017-03-29T06:15:49.796Z,951.6
2017-03-29T06:16:58.116Z,951.6
2017-03-29T06:18:05.970Z,951.5
2017-03-29T06:19:14.112Z,951.6
2017-03-29T06:20:22.338Z,951.6
2017-03-29T06:21:30.263Z,951.6
2017-03-29T06:22:38.312Z,951.6
2017-03-29T06:23:46.639Z,951.6
2017-03-29T06:24:54.488Z,951.6
2017-03-29T06:26:02.632Z,951.5
2017-03-29T06:27:10.660Z,951.5
2017-03-29T06:28:18.812Z,951.5
2017-03-29T06:29:27.090Z,951.5
2017-03-29T06:30:34.915Z,951.5
2017-03-29T06:31:43.185Z,951.6
2017-03-29T06:32:51.090Z,951.6
2017-03-29T06:33:59.289Z,951.6
2017-03-29T06:35:07.759Z,951.6
2017-03-29T06:36:15.347Z,951.6
2017-03-29T06:37:23.484Z,951.6
2017-03-29T06:38:31.515Z,951.6
2017-03-29T06:39:39.603Z,951.7
2017-03-29T06:40:47.690Z,951.6
2017-03-29T06:41:55.881Z,951.7
2017-03-29T06:43:04.002Z,951.7
2017-03-29T06:44:11.949Z,951.7
2017-03-29T06:45:20.034Z,951.7
2017-03-29T06:46:28.115Z,951.7
2017-03-29T06:47:36.203Z,951.7
2017-03-29T06:48:44.794Z,951.7
2017-03-29T06:49:52.382Z,951.7
2017-03-29T06:51:00.515Z,951.7
2017-03-29T06:52:08.548Z,951.8
2017-03-29T06:53:16.705Z,951.8
2017-03-29T06:54:24.779Z,951.8
2017-03-29T06:55:32.813Z,951.8
2017-03-29T06:56:41.010Z,951.8
2017-03-29T06:57:49.165Z,951.8
2017-03-29T06:58:57.063Z,951.8
2017-03-29T07:00:05.209Z,951.8
2017-03-29T07:01:13.235Z,951.7
2017-03-29T07:02:21.330Z,951.8
2017-03-29T07:03:29.413Z,951.8
2017-03-29T07:04:37.551Z,951.8
2017-03-29T07:05:46.096Z,951.7
2017-03-29T07:06:53.796Z,951.8
2017-03-29T07:08:01.913Z,951.7
2017-03-29T07:09:10.683Z,951.7
2017-03-29T07:10:17.934Z,951.7
2017-03-29T07:11:26.078Z,951.7
2017-03-29T07:12:34.108Z,951.8
2017-03-29T07:13:42.299Z,951.7
2017-03-29T07:14:50.366Z,951.7
2017-03-29T07:15:58.455Z,951.7
2017-03-29T07:17:07.056Z,951.7
2017-03-29T07:18:14.631Z,951.7
2017-03-29T07:19:22.780Z,951.7
2017-03-29T07:20:30.811Z,951.7
2017-03-29T07:21:38.900Z,951.7
2017-03-29T07:22:47.229Z,951.7
2017-03-29T07:23:55.066Z,951.7
2017-03-29T07:25:03.346Z,951.7
2017-03-29T07:26:11.279Z,951.7
2017-03-29T07:27:19.714Z,951.7
2017-03-29T07:28:28.010Z,951.7
2017-03-29T07:29:36.024Z,951.7
2017-03-29T07:30:43.686Z,951.7
2017-03-29T07:31:52.101Z,951.7
2017-03-29T07:32:59.795Z,951.7
2017-03-29T07:34:08.203Z,951.7
2017-03-29T07:35:16.281Z,951.7
2017-03-29T07:36:24.282Z,951.7
2017-03-29T07:37:32.471Z,951.7
2017-03-29T07:38:41.978Z,951.8
2017-03-29T07:39:50.262Z,951.8
2017-03-29T07:40:56.740Z,951.8
2017-03-29T07:42:04.746Z,951.8
2017-03-29T07:43:12.851Z,951.8
2017-03-29T07:44:21.139Z,951.8
2017-03-29T07:45:30.586Z,951.8
2017-03-29T07:46:36.844Z,951.8
2017-03-29T07:47:44.928Z,951.8
2017-03-29T07:48:53.029Z,951.8
2017-03-29T07:50:01.123Z,951.8
2017-03-29T07:51:10.850Z,951.8
2017-03-29T07:52:17.249Z,951.8
2017-03-29T07:53:25.739Z,951.8
2017-03-29T07:54:35.509Z,951.8
2017-03-29T07:55:41.974Z,951.8
2017-03-29T07:56:49.928Z,951.8
2017-03-29T07:57:57.942Z,951.8
2017-03-29T07:59:05.939Z,951.8
2017-03-29T08:00:14.427Z,951.8
2017-03-29T08:01:22.191Z,951.9
2017-03-29T08:02:30.691Z,951.9
2017-03-29T08:03:38.357Z,951.8
2017-03-29T08:04:46.400Z,951.9
2017-03-29T08:05:54.261Z,951.9
2017-03-29T08:07:02.349Z,951.9
2017-03-29T08:08:10.691Z,951.9
2017-03-29T08:09:18.533Z,951.9
2017-03-29T08:10:27.134Z,951.9
2017-03-29T08:11:34.713Z,951.9
2017-03-29T08:12:42.802Z,951.9
2017-03-29T08:13:51.170Z,951.9
2017-03-29T08:14:58.970Z,951.9
2017-03-29T08:16:07.225Z,951.9
2017-03-29T08:17:15.544Z,951.9
2017-03-29T08:18:23.326Z,951.9
2017-03-29T08:19:31.560Z,951.9
2017-03-29T08:20:39.396Z,951.9
2017-03-29T08:21:47.493Z,951.9
2017-03-29T08:22:55.562Z,951.9
2017-03-29T08:24:03.665Z,951.9
2017-03-29T08:25:12.243Z,952.0
2017-03-29T08:26:20.081Z,952.0
2017-03-29T08:27:27.922Z,952.0
2017-03-29T08:28:36.138Z,952.0
2017-03-29T08:29:44.190Z,952.0
2017-03-29T08:30:52.687Z,952.0
2017-03-29T08:32:00.581Z,952.0
2017-03-29T08:33:08.404Z,952.0
2017-03-29T08:34:16.439Z,952.0
2017-03-29T08:35:24.525Z,952.0
2017-03-29T08:36:32.575Z,952.0
2017-03-29T08:37:40.616Z,952.0
2017-03-29T08:38:48.702Z,952.0
2017-03-29T08:39:56.851Z,952.0
2017-03-29T08:41:04.870Z,952.0
2017-03-29T08:42:13.465Z,952.0
2017-03-29T08:43:21.045Z,952.0
2017-03-29T08:44:29.138Z,952.0
2017-03-29T08:45:37.225Z,952.0
2017-03-29T08:46:45.312Z,952.0
2017-03-29T08:47:53.899Z,952.0
2017-03-29T08:49:01.483Z,952.0
2017-03-29T08:50:09.759Z,952.0
2017-03-29T08:51:17.741Z,952.0
2017-03-29T08:52:25.738Z,952.0
2017-03-29T08:53:34.332Z,952.0
2017-03-29T08:54:41.915Z,952.1
2017-03-29T08:55:50.019Z,952.0
2017-03-29T08:56:58.097Z,952.0
2017-03-29T08:58:06.238Z,952.1
2017-03-29T08:59:14.321Z,952.0
2017-03-29T09:00:22.361Z,952.0
2017-03-29T09:01:30.454Z,952.0
2017-03-29T09:02:38.536Z,952.0
2017-03-29T09:03:46.623Z,952.0
2017-03-29T09:04:55.201Z,952.0
2017-03-29T09:06:02.788Z,952.0
2017-03-29T09:07:10.906Z,952.0
2017-03-29T09:08:18.958Z,952.0
2017-03-29T09:09:27.046Z,952.0
2017-03-29T09:10:35.189Z,952.1
2017-03-29T09:11:43.215Z,952.1
2017-03-29T09:12:51.367Z,952.1
2017-03-29T09:13:59.893Z,952.1
2017-03-29T09:15:07.479Z,952.1
2017-03-29T09:16:15.623Z,952.1
2017-03-29T09:17:23.835Z,952.1
2017-03-29T09:18:31.743Z,952.1
2017-03-29T09:19:39.831Z,952.1
2017-03-29T09:20:47.911Z,952.1
2017-03-29T09:21:56.058Z,952.1
2017-03-29T09:23:04.115Z,952.1
2017-03-29T09:24:12.198Z,952.1
2017-03-29T09:25:20.258Z,952.1
2017-03-29T09:26:28.344Z,952.1
2017-03-29T09:27:37.011Z,952.1
2017-03-29T09:28:44.669Z,952.1
2017-03-29T09:29:52.661Z,952.1
2017-03-29T09:31:00.693Z,952.1
2017-03-29T09:32:08.775Z,952.1
2017-03-29T09:33:16.921Z,952.1
2017-03-29T09:34:24.951Z,952.1
2017-03-29T09:35:33.034Z,952.1
2017-03-29T09:36:41.121Z,952.1
2017-03-29T09:37:49.205Z,952.1
2017-03-29T09:38:57.935Z,952.1
2017-03-29T09:40:05.377Z,952.1
2017-03-29T09:41:13.467Z,952.0
2017-03-29T09:42:21.553Z,952.1
2017-03-29T09:43:29.644Z,952.0
2017-03-29T09:44:38.233Z,952.0
2017-03-29T09:45:45.875Z,952.0
2017-03-29T09:46:53.899Z,952.0
2017-03-29T09:48:01.984Z,952.0
2017-03-29T09:49:10.160Z,952.0
2017-03-29T09:50:18.286Z,952.0
2017-03-29T09:51:26.243Z,952.1
2017-03-29T09:52:34.341Z,952.0
2017-03-29T09:53:42.418Z,952.1
2017-03-29T09:54:50.719Z,952.1
2017-03-29T09:55:59.105Z,952.0
2017-03-29T09:57:06.689Z,952.0
2017-03-29T09:58:14.773Z,952.0
2017-03-29T09:59:22.857Z,952.0
2017-03-29T10:00:31.030Z,952.0
2017-03-29T10:01:39.091Z,952.0
2017-03-29T10:02:47.116Z,952.0
2017-03-29T10:03:55.205Z,952.0
2017-03-29T10:05:03.294Z,952.0
2017-03-29T10:06:11.385Z,952.0
2017-03-29T10:07:19.525Z,952.0
2017-03-29T10:08:27.555Z,952.0
2017-03-29T10:09:35.645Z,952.0
2017-03-29T10:10:43.812Z,952.0
2017-03-29T10:11:51.899Z,952.0
2017-03-29T10:13:00.409Z,951.9
2017-03-29T10:14:07.989Z,951.9
2017-03-29T10:15:16.071Z,951.9
2017-03-29T10:16:24.166Z,951.9
2017-03-29T10:17:32.318Z,951.9
2017-03-29T10:18:40.396Z,951.9
2017-03-29T10:19:48.423Z,951.9
2017-03-29T10:20:56.517Z,951.9
2017-03-29T10:22:04.602Z,951.8
2017-03-29T10:23:12.687Z,951.8
2017-03-29T10:24:21.286Z,951.9
2017-03-29T10:25:28.867Z,951.8
2017-03-29T10:26:36.946Z,951.8
2017-03-29T10:27:45.033Z,951.8
2017-03-29T10:28:53.127Z,951.8
2017-03-29T10:30:01.272Z,951.8
2017-03-29T10:31:09.298Z,951.7
2017-03-29T10:32:17.390Z,951.7
2017-03-29T10:33:25.986Z,951.7
2017-03-29T10:34:33.567Z,951.7
2017-03-29T10:35:41.710Z,951.7
2017-03-29T10:36:49.742Z,951.7
2017-03-29T10:37:58.364Z,951.7
2017-03-29T10:39:05.910Z,951.6
2017-03-29T10:40:14.000Z,951.6
2017-03-29T10:41:22.142Z,951.6
2017-03-29T10:42:30.169Z,951.6
2017-03-29T10:43:38.261Z,951.6
2017-03-29T10:44:46.361Z,951.6
2017-03-29T10:45:54.431Z,951.6
2017-03-29T10:47:02.574Z,951.6
2017-03-29T10:48:10.722Z,951.5
2017-03-29T10:49:18.854Z,951.5
2017-03-29T10:50:26.781Z,951.5
2017-03-29T10:51:34.867Z,951.5
2017-03-29T10:52:43.010Z,951.5
2017-03-29T10:53:51.038Z,951.5
2017-03-29T10:54:59.122Z,951.5
2017-03-29T10:56:07.213Z,951.5
2017-03-29T10:57:15.304Z,951.5
2017-03-29T10:58:23.889Z,951.5
2017-03-29T10:59:31.472Z,951.4
2017-03-29T11:00:39.561Z,951.3
2017-03-29T11:01:47.642Z,951.4
2017-03-29T11:02:55.732Z,951.4
2017-03-29T11:04:03.876Z,951.4
2017-03-29T11:05:12.412Z,951.4
2017-03-29T11:06:19.988Z,951.4
2017-03-29T11:07:28.327Z,951.5
2017-03-29T11:08:36.167Z,951.4
2017-03-29T11:09:44.313Z,951.4
2017-03-29T11:10:52.339Z,951.4
2017-03-29T11:12:00.429Z,951.4
2017-03-29T11:13:08.522Z,951.4
2017-03-29T11:14:16.791Z,951.3
2017-03-29T11:15:24.941Z,951.4
2017-03-29T11:16:32.780Z,951.4
2017-03-29T11:17:40.862Z,951.4
2017-03-29T11:18:48.948Z,951.4
2017-03-29T11:19:57.042Z,951.3
2017-03-29T11:21:05.530Z,951.4
2017-03-29T11:22:13.429Z,951.4
2017-03-29T11:23:21.313Z,951.3
2017-03-29T11:24:29.396Z,951.3
2017-03-29T11:25:37.675Z,951.3
2017-03-29T11:26:46.072Z,951.3
2017-03-29T11:27:53.658Z,951.3
2017-03-29T11:29:01.764Z,951.2
2017-03-29T11:30:09.827Z,951.2
2017-03-29T11:31:18.022Z,951.2
2017-03-29T11:32:26.149Z,951.2
2017-03-29T11:33:34.093Z,951.2
2017-03-29T11:34:42.177Z,951.2
2017-03-29T11:35:50.399Z,951.2
2017-03-29T11:36:58.405Z,951.1
2017-03-29T11:38:06.489Z,951.1
2017-03-29T11:39:14.524Z,951.1
2017-03-29T11:40:22.620Z,951.1
2017-03-29T11:41:30.699Z,951.1
2017-03-29T11:42:38.819Z,951.1
2017-03-29T11:43:46.938Z,951.1
2017-03-29T11:44:54.970Z,951.1
2017-03-29T11:46:03.051Z,951.2
2017-03-29T11:47:11.308Z,951.1
2017-03-29T11:48:19.239Z,951.0
2017-03-29T11:49:27.371Z,951.1
2017-03-29T11:50:35.407Z,951.0
2017-03-29T11:51:43.493Z,951.0
2017-03-29T11:52:52.226Z,951.0
2017-03-29T11:53:59.668Z,951.1
2017-03-29T11:55:08.586Z,951.0
2017-03-29T11:56:15.858Z,951.0
2017-03-29T11:57:23.932Z,951.0
2017-03-29T11:58:32.109Z,951.0
2017-03-29T11:59:40.102Z,951.0
2017-03-29T12:00:48.242Z,951.0
2017-03-29T12:01:56.274Z,951.0
2017-03-29T12:03:04.365Z,950.9
2017-03-29T12:04:12.451Z,950.9
2017-03-29T12:05:20.544Z,950.9
2017-03-29T12:06:29.143Z,950.9
2017-03-29T12:07:36.709Z,950.9
2017-03-29T12:08:45.259Z,950.9
2017-03-29T12:09:52.882Z,950.8
2017-03-29T12:11:00.972Z,950.9
2017-03-29T12:12:09.115Z,950.8
2017-03-29T12:13:17.189Z,950.8
2017-03-29T12:14:25.937Z,950.8
2017-03-29T12:15:33.387Z,950.8
2017-03-29T12:16:41.405Z,950.8
2017-03-29T12:17:49.998Z,950.8
2017-03-29T12:18:57.788Z,950.8
2017-03-29T12:20:05.673Z,950.7
2017-03-29T12:21:13.756Z,950.7
2017-03-29T12:22:22.061Z,950.7
2017-03-29T12:23:30.311Z,950.7
2017-03-29T12:24:38.147Z,950.7
2017-03-29T12:25:46.103Z,950.7
2017-03-29T12:26:54.194Z,950.7
2017-03-29T12:28:02.280Z,950.7
2017-03-29T12:29:11.061Z,950.7
2017-03-29T12:30:18.455Z,950.7
2017-03-29T12:31:26.542Z,950.7
2017-03-29T12:32:34.630Z,950.6
2017-03-29T12:33:42.717Z,950.7
2017-03-29T12:34:50.926Z,950.6
2017-03-29T12:35:58.966Z,950.7
2017-03-29T12:37:06.979Z,950.6
2017-03-29T12:38:15.070Z,950.6
2017-03-29T12:39:23.345Z,950.5
2017-03-29T12:40:31.538Z,950.6
2017-03-29T12:41:39.332Z,950.6
2017-03-29T12:42:47.416Z,950.5
2017-03-29T12:43:55.502Z,950.5
2017-03-29T12:45:03.587Z,950.5
2017-03-29T12:46:11.783Z,950.5
2017-03-29T12:47:19.767Z,950.5
2017-03-29T12:48:27.845Z,950.5
2017-03-29T12:49:35.936Z,950.5
2017-03-29T12:50:44.458Z,950.6
2017-03-29T12:51:52.165Z,950.5
2017-03-29T12:53:00.207Z,950.5
2017-03-29T12:54:08.291Z,950.5
2017-03-29T12:55:16.409Z,950.5
2017-03-29T12:56:24.523Z,950.5
2017-03-29T12:57:32.617Z,950.5
2017-03-29T12:58:40.641Z,950.5
2017-03-29T12:59:48.732Z,950.4
2017-03-29T13:00:56.822Z,950.4
2017-03-29T13:02:05.092Z,950.4
2017-03-29T13:03:13.506Z,950.4
2017-03-29T13:04:21.083Z,950.4
2017-03-29T13:05:29.183Z,950.4
2017-03-29T13:06:37.267Z,950.4
2017-03-29T13:07:45.355Z,950.4
2017-03-29T13:08:53.495Z,950.4
2017-03-29T13:10:01.524Z,950.4
2017-03-29T13:11:09.621Z,950.4
2017-03-29T13:12:18.364Z,950.4
2017-03-29T13:13:25.784Z,950.4
2017-03-29T13:14:33.925Z,950.4
2017-03-29T13:15:41.954Z,950.4
2017-03-29T13:16:50.042Z,950.3
2017-03-29T13:17:58.134Z,950.3
2017-03-29T13:19:06.218Z,950.3
2017-03-29T13:20:14.362Z,950.3
2017-03-29T13:21:22.393Z,950.3
2017-03-29T13:22:30.475Z,950.3
2017-03-29T13:23:38.568Z,950.3
2017-03-29T13:24:46.649Z,950.3
2017-03-29T13:25:54.796Z,950.3
2017-03-29T13:27:02.822Z,950.3
2017-03-29T13:28:11.152Z,950.3
2017-03-29T13:29:19.001Z,950.2
2017-03-29T13:30:27.088Z,950.2
2017-03-29T13:31:35.680Z,950.2
2017-03-29T13:32:43.256Z,950.2
2017-03-29T13:33:51.347Z,950.2
2017-03-29T13:34:59.434Z,950.3
2017-03-29T13:36:07.514Z,950.2
2017-03-29T13:37:15.662Z,950.2
2017-03-29T13:38:23.801Z,950.2
2017-03-29T13:39:31.867Z,950.2
2017-03-29T13:40:39.862Z,950.2
2017-03-29T13:41:47.951Z,950.2
2017-03-29T13:42:56.096Z,950.2
2017-03-29T13:44:04.179Z,950.2
2017-03-29T13:45:12.211Z,950.2
2017-03-29T13:46:20.297Z,950.2
2017-03-29T13:47:28.379Z,950.1
2017-03-29T13:48:36.975Z,950.1
2017-03-29T13:49:44.560Z,950.1
2017-03-29T13:50:52.643Z,950.1
2017-03-29T13:52:00.730Z,950.1
2017-03-29T13:53:08.820Z,950.0
2017-03-29T13:54:17.175Z,950.1
2017-03-29T13:55:25.000Z,950.0
2017-03-29T13:56:33.085Z,950.0
2017-03-29T13:57:41.171Z,950.0
2017-03-29T13:58:49.260Z,950.0
2017-03-29T13:59:57.923Z,950.0
2017-03-29T14:01:05.431Z,950.0
2017-03-29T14:02:13.519Z,950.0
2017-03-29T14:03:21.605Z,950.0
2017-03-29T14:04:29.846Z,950.0
2017-03-29T14:05:37.837Z,950.0
2017-03-29T14:06:45.869Z,949.9
2017-03-29T14:07:53.954Z,949.9
2017-03-29T14:09:02.042Z,949.9
2017-03-29T14:10:10.137Z,949.9
2017-03-29T14:11:18.785Z,949.9
2017-03-29T14:12:26.306Z,949.8
2017-03-29T14:13:34.394Z,949.8
2017-03-29T14:14:42.478Z,949.8
2017-03-29T14:15:50.622Z,949.8
2017-03-29T14:16:58.713Z,949.8
2017-03-29T14:18:06.738Z,949.7
2017-03-29T14:19:14.824Z,949.7
2017-03-29T14:20:22.912Z,949.7
2017-03-29T14:21:31.074Z,949.7
2017-03-29T14:22:39.643Z,949.7
2017-03-29T14:23:47.172Z,949.7
2017-03-29T14:24:55.261Z,949.7
2017-03-29T14:26:03.345Z,949.7
2017-03-29T14:27:11.515Z,949.6
2017-03-29T14:28:19.581Z,949.6
2017-03-29T14:29:27.607Z,949.6
2017-03-29T14:30:35.692Z,949.6
2017-03-29T14:31:44.280Z,949.6
2017-03-29T14:32:51.890Z,949.6
2017-03-29T14:34:00.013Z,949.6
2017-03-29T14:35:08.040Z,949.6
2017-03-29T14:36:16.130Z,949.5